Time;durP1;ratioP1;P1;durP2;ratioP2;P2;SDS_P1;SDS_P2;PMS_P1;PMS_P2;Temp;Humidity;BMP_temperature;BMP_pressure;BME280_temperature;BME280_humidity;BME280_pressure;Samples;Min_cycle;Max_cycle;Signal;HPM_P1;HPM_P2
2023/08/15 00:02:08;;;;;;;6.40;3.10;;;;;;;22.52;100.00;99737.81;109531;1252;71361;-71
2023/08/15 00:04:35;;;;;;;6.00;3.80;;;;;;;22.47;100.00;99739.55;109483;1252;59280;-69
2023/08/15 00:07:05;;;;;;;6.30;3.30;;;;;;;22.42;100.00;99739.81;109482;1252;60014;-69
2023/08/15 00:09:33;;;;;;;7.20;2.90;;;;;;;22.36;100.00;99738.83;109464;1252;74650;-70
2023/08/15 00:12:00;;;;;;;5.30;4.10;;;;;;;22.31;100.00;99741.11;109560;1252;68438;-72
2023/08/15 00:14:28;;;;;;;5.30;3.60;;;;;;;22.26;100.00;99739.98;109521;1252;72638;-70
2023/08/15 00:16:55;;;;;;;4.70;3.30;;;;;;;22.21;100.00;99741.29;109487;1252;58968;-69
2023/08/15 00:19:22;;;;;;;6.50;3.30;;;;;;;22.17;100.00;99741.80;109502;1252;59405;-72
2023/08/15 00:21:50;;;;;;;8.10;3.40;;;;;;;22.11;100.00;99741.25;109210;1252;73337;-69
2023/08/15 00:24:18;;;;;;;3.90;3.00;;;;;;;22.05;100.00;99749.25;109491;1252;67673;-69
2023/08/15 00:26:45;;;;;;;5.40;3.10;;;;;;;22.01;100.00;99746.98;109503;1252;71884;-70
2023/08/15 00:29:12;;;;;;;5.90;3.90;;;;;;;21.98;100.00;99749.23;109527;1253;60369;-69
2023/08/15 00:31:40;;;;;;;4.50;3.50;;;;;;;21.96;100.00;99750.83;109516;1252;58880;-70
2023/08/15 00:34:07;;;;;;;5.30;3.70;;;;;;;21.93;100.00;99751.35;109469;1253;74849;-69
2023/08/15 00:36:34;;;;;;;6.80;3.40;;;;;;;21.88;100.00;99750.98;109451;1252;67563;-70
2023/08/15 00:39:02;;;;;;;10.80;3.60;;;;;;;21.84;100.00;99753.95;109521;1253;71377;-69
2023/08/15 00:41:30;;;;;;;6.60;3.50;;;;;;;21.81;100.00;99751.58;109451;1253;58989;-70
2023/08/15 00:43:58;;;;;;;4.50;3.60;;;;;;;21.78;100.00;99753.68;109540;1252;58891;-71
2023/08/15 00:46:25;;;;;;;6.60;4.30;;;;;;;21.75;100.00;99752.27;109494;1252;73367;-69
2023/08/15 00:48:54;;;;;;;6.40;3.50;;;;;;;21.72;100.00;99755.88;109476;1253;66603;-69
2023/08/15 00:51:23;;;;;;;9.80;3.60;;;;;;;21.69;100.00;99753.05;109368;1253;71791;-69
2023/08/15 00:53:50;;;;;;;3.90;3.00;;;;;;;21.66;100.00;99758.06;109391;1253;60789;-71
2023/08/15 00:56:17;;;;;;;5.30;3.00;;;;;;;21.62;100.00;99760.26;109456;1252;59043;-70
2023/08/15 00:58:45;;;;;;;5.60;3.10;;;;;;;21.58;100.00;99755.82;109480;1253;73397;-71
2023/08/15 01:01:15;;;;;;;7.30;3.90;;;;;;;21.54;100.00;99756.11;109376;1252;67883;-69
2023/08/15 01:03:42;;;;;;;4.10;3.00;;;;;;;21.51;100.00;99756.40;109415;1252;72641;-69
2023/08/15 01:06:10;;;;;;;9.10;4.20;;;;;;;21.48;100.00;99753.80;109442;1252;60133;-71
2023/08/15 01:08:37;;;;;;;4.00;3.10;;;;;;;21.45;100.00;99755.30;109499;1252;60055;-70
2023/08/15 01:11:05;;;;;;;7.40;3.30;;;;;;;21.43;100.00;99754.43;109450;1252;73332;-71
2023/08/15 01:13:32;;;;;;;9.70;3.60;;;;;;;21.41;100.00;99755.41;109217;1252;286846;-70
2023/08/15 01:16:04;;;;;;;4.70;3.30;;;;;;;21.38;100.00;99754.20;109418;1252;73256;-69
2023/08/15 01:18:34;;;;;;;6.00;3.20;;;;;;;21.34;100.00;99750.31;109363;1255;59031;-69
2023/08/15 01:21:02;;;;;;;4.80;3.00;;;;;;;21.30;100.00;99750.77;109451;1253;59277;-69
2023/08/15 01:23:42;;;;;;;3.80;3.00;;;;;;;21.26;100.00;99747.88;109364;1253;74690;-69
2023/08/15 01:26:09;;;;;;;5.30;3.70;;;;;;;21.22;100.00;99754.10;109476;1252;67653;-69
2023/08/15 01:28:38;;;;;;;3.90;2.90;;;;;;;21.18;100.00;99751.96;109346;1252;71359;-69
2023/08/15 01:31:14;;;;;;;8.00;3.00;;;;;;;21.14;100.00;99750.27;109449;1253;59859;-69
2023/08/15 01:33:48;;;;;;;7.80;3.00;;;;;;;21.10;100.00;99752.13;109261;1252;60032;-70
2023/08/15 01:36:33;;;;;;;3.60;3.20;;;;;;;21.06;100.00;99752.83;109488;1252;74645;-69
2023/08/15 01:39:03;;;;;;;3.30;2.90;;;;;;;21.03;100.00;99748.79;109342;1252;66444;-70
2023/08/15 01:41:33;;;;;;;4.50;3.20;;;;;;;20.99;100.00;99755.67;109374;1253;71708;-70
2023/08/15 01:44:00;;;;;;;4.10;3.10;;;;;;;20.93;100.00;99757.59;109182;1253;58906;-69
2023/08/15 01:46:27;;;;;;;6.10;3.30;;;;;;;20.88;100.00;99760.08;109380;1253;59024;-72
2023/08/15 01:48:57;;;;;;;4.10;3.70;;;;;;;20.82;100.00;99760.63;109432;1253;73445;-69
2023/08/15 01:51:25;;;;;;;7.20;3.50;;;;;;;20.75;100.00;99763.88;109378;1253;67906;-68
2023/08/15 01:53:52;;;;;;;3.50;3.10;;;;;;;20.67;100.00;99763.24;109392;1252;71423;-71
2023/08/15 01:56:20;;;;;;;4.20;3.10;;;;;;;20.59;100.00;99764.48;109473;1252;60036;-71
2023/08/15 01:58:47;;;;;;;4.50;3.20;;;;;;;20.54;100.00;99763.92;109413;1253;60179;-69
2023/08/15 02:01:15;;;;;;;4.20;3.50;;;;;;;20.52;100.00;99760.33;109472;1252;73336;-70
2023/08/15 02:03:42;;;;;;;3.50;2.80;;;;;;;20.50;100.00;99759.02;109442;1253;67461;-69
2023/08/15 02:06:09;;;;;;;4.10;3.60;;;;;;;20.47;100.00;99760.72;109425;1253;75801;-69
2023/08/15 02:08:37;;;;;;;5.50;3.50;;;;;;;20.41;100.00;99760.43;109430;1252;60384;-69
2023/08/15 02:11:04;;;;;;;4.50;3.10;;;;;;;20.31;100.00;99758.23;109452;1252;59376;-70
2023/08/15 02:13:33;;;;;;;3.90;3.00;;;;;;;20.27;100.00;99758.64;109469;1252;74699;-72
2023/08/15 02:16:01;;;;;;;4.20;3.20;;;;;;;20.26;100.00;99761.67;109485;1252;67919;-72
2023/08/15 02:18:29;;;;;;;7.90;3.10;;;;;;;20.27;100.00;99759.72;109378;1253;72626;-72
2023/08/15 02:20:56;;;;;;;6.60;3.10;;;;;;;20.28;100.00;99760.58;109438;1254;60134;-70
2023/08/15 02:23:23;;;;;;;7.50;3.70;;;;;;;20.31;100.00;99761.83;109393;1252;60013;-70
2023/08/15 02:25:51;;;;;;;5.70;3.60;;;;;;;20.32;100.00;99765.39;109529;1253;74606;-69
2023/08/15 02:28:18;;;;;;;4.00;3.70;;;;;;;20.33;100.00;99764.49;109427;1252;66289;-71
2023/08/15 02:30:45;;;;;;;4.90;2.90;;;;;;;20.35;100.00;99765.52;109427;1252;71435;-73
2023/08/15 02:33:13;;;;;;;4.80;3.00;;;;;;;20.40;100.00;99766.52;109469;1252;60395;-72
2023/08/15 02:35:41;;;;;;;9.70;3.70;;;;;;;20.44;100.00;99764.05;109488;1252;59996;-68
2023/08/15 02:38:08;;;;;;;4.00;3.30;;;;;;;20.47;100.00;99763.42;109439;1252;74632;-72
2023/08/15 02:40:37;;;;;;;4.90;3.70;;;;;;;20.48;100.00;99762.37;109491;1252;66793;-70
2023/08/15 02:43:04;;;;;;;5.90;2.90;;;;;;;20.47;100.00;99763.75;109484;1252;71458;-72
2023/08/15 02:45:32;;;;;;;5.90;3.30;;;;;;;20.46;100.00;99767.36;109369;1252;59001;-72
2023/08/15 02:48:00;;;;;;;4.10;3.40;;;;;;;20.44;100.00;99768.52;109380;1252;58931;-72
2023/08/15 02:50:29;;;;;;;6.10;3.20;;;;;;;20.40;100.00;99771.83;109463;1252;74682;-71
2023/08/15 02:52:56;;;;;;;3.20;2.90;;;;;;;20.33;100.00;99773.11;109364;1252;67597;-69
2023/08/15 02:55:23;;;;;;;3.50;3.20;;;;;;;20.24;100.00;99776.04;109465;1252;73000;-70
2023/08/15 02:57:51;;;;;;;6.20;3.20;;;;;;;20.19;100.00;99777.61;109455;1252;60084;-70
2023/08/15 03:00:18;;;;;;;3.60;3.30;;;;;;;20.18;100.00;99781.73;109513;1252;60039;-72
2023/08/15 03:02:47;;;;;;;4.40;3.50;;;;;;;20.17;100.00;99785.70;109386;1252;73904;-69
2023/08/15 03:05:14;;;;;;;7.20;3.90;;;;;;;20.15;100.00;99787.70;109571;1252;67582;-71
2023/08/15 03:07:41;;;;;;;4.40;3.50;;;;;;;20.13;100.00;99791.14;109386;1252;75682;-69
2023/08/15 03:10:09;;;;;;;3.80;2.90;;;;;;;20.12;100.00;99796.63;109471;1252;61674;-69
2023/08/15 03:12:36;;;;;;;4.10;3.30;;;;;;;20.12;100.00;99792.69;109463;1252;59620;-71
2023/08/15 03:15:04;;;;;;;5.30;2.90;;;;;;;20.13;100.00;99794.02;109562;1252;74658;-72
2023/08/15 03:17:35;;;;;;;4.70;3.30;;;;;;;20.16;100.00;99795.14;109480;1252;66906;-69
2023/08/15 03:20:04;;;;;;;5.40;3.20;;;;;;;20.21;100.00;99794.67;109525;1252;72666;-70
2023/08/15 03:22:31;;;;;;;6.50;3.40;;;;;;;20.26;100.00;99794.92;109503;1252;60287;-70
2023/08/15 03:24:59;;;;;;;5.50;3.40;;;;;;;20.33;100.00;99798.39;109469;1252;60009;-69
2023/08/15 03:27:27;;;;;;;4.90;3.10;;;;;;;20.41;100.00;99797.73;109470;1253;73373;-72
2023/08/15 03:29:54;;;;;;;4.90;3.50;;;;;;;20.49;100.00;99794.77;109518;1252;67555;-69
2023/08/15 03:32:22;;;;;;;6.50;3.30;;;;;;;20.61;100.00;99796.02;109334;1253;71356;-69
2023/08/15 03:34:50;;;;;;;3.90;3.10;;;;;;;20.78;100.00;99795.27;109489;1252;61688;-69
2023/08/15 03:37:18;;;;;;;7.70;3.40;;;;;;;20.97;100.00;99790.33;109421;1252;59997;-69
2023/08/15 03:39:45;;;;;;;5.50;3.50;;;;;;;21.17;100.00;99786.55;109501;1252;73499;-68
2023/08/15 03:42:14;;;;;;;3.60;3.30;;;;;;;21.38;100.00;99786.31;109403;1252;67942;-70
2023/08/15 03:44:41;;;;;;;6.10;3.60;;;;;;;21.60;100.00;99784.13;109525;1252;70789;-68
2023/08/15 03:47:09;;;;;;;4.40;3.10;;;;;;;21.81;100.00;99778.30;109356;1252;60015;-69
2023/08/15 03:49:37;;;;;;;3.80;3.10;;;;;;;22.03;100.00;99780.45;109489;1252;58992;-68
2023/08/15 03:52:05;;;;;;;3.50;3.20;;;;;;;22.24;100.00;99776.09;109454;1252;74655;-71
2023/08/15 03:54:32;;;;;;;4.90;3.50;;;;;;;22.46;100.00;99779.20;109515;1253;66295;-69
2023/08/15 03:56:59;;;;;;;7.10;3.70;;;;;;;22.69;100.00;99779.65;109521;1252;72790;-69
2023/08/15 03:59:27;;;;;;;5.40;3.20;;;;;;;22.94;100.00;99781.98;109355;1252;60462;-69
2023/08/15 04:01:57;;;;;;;3.50;3.20;;;;;;;23.16;100.00;99780.11;109389;1252;58910;-70
2023/08/15 04:04:25;;;;;;;3.40;3.10;;;;;;;23.39;100.00;99779.16;109505;1252;74591;-69
2023/08/15 04:06:52;;;;;;;4.10;3.30;;;;;;;23.62;100.00;99779.23;109490;1252;66674;-69
2023/08/15 04:09:20;;;;;;;5.60;3.50;;;;;;;23.86;100.00;99775.89;109450;1253;72697;-72
2023/08/15 04:11:49;;;;;;;6.50;3.40;;;;;;;24.10;100.00;99777.03;109398;1252;59079;-70
2023/08/15 04:14:16;;;;;;;4.60;3.10;;;;;;;24.31;100.00;99776.55;109500;1252;59479;-72
2023/08/15 04:16:44;;;;;;;6.40;3.60;;;;;;;24.49;100.00;99777.83;109300;1252;74620;-69
2023/08/15 04:19:15;;;;;;;6.10;3.80;;;;;;;24.68;100.00;99776.23;109515;1252;67577;-72
2023/08/15 04:21:42;;;;;;;5.00;3.40;;;;;;;24.87;100.00;99779.27;109349;1252;72684;-73
2023/08/15 04:24:09;;;;;;;6.40;3.40;;;;;;;25.09;100.00;99776.56;109478;1252;58933;-73
2023/08/15 04:26:37;;;;;;;5.00;3.30;;;;;;;25.31;100.00;99781.02;109487;1252;58881;-69
2023/08/15 04:29:04;;;;;;;4.30;3.70;;;;;;;25.55;100.00;99781.17;109388;1252;73385;-68
2023/08/15 04:31:32;;;;;;;6.00;4.30;;;;;;;25.86;100.00;99778.91;109523;1252;68496;-70
2023/08/15 04:33:59;;;;;;;7.40;4.90;;;;;;;26.13;100.00;99774.52;109540;1252;71803;-70
2023/08/15 04:36:27;;;;;;;8.20;5.90;;;;;;;26.33;100.00;99772.79;109390;1252;60142;-70
2023/08/15 04:38:55;;;;;;;13.90;10.40;;;;;;;26.53;100.00;99775.16;109400;1254;59100;-72
2023/08/15 04:41:22;;;;;;;12.20;11.00;;;;;;;26.76;100.00;99773.84;109291;1253;73343;-73
2023/08/15 04:43:50;;;;;;;14.40;10.70;;;;;;;26.99;100.00;99776.10;109596;1253;67721;-70
2023/08/15 04:46:19;;;;;;;11.20;10.10;;;;;;;27.19;100.00;99773.77;109479;1252;72665;-71
2023/08/15 04:48:46;;;;;;;14.20;11.40;;;;;;;27.39;100.00;99774.23;109350;1255;61103;-70
2023/08/15 04:51:14;;;;;;;12.60;11.30;;;;;;;27.60;100.00;99773.54;109347;1252;59015;-69
2023/08/15 04:53:41;;;;;;;11.30;10.10;;;;;;;27.83;100.00;99771.70;109539;1252;73864;-69
2023/08/15 04:56:11;;;;;;;9.90;6.60;;;;;;;28.07;100.00;99771.96;109402;1252;67774;-70
2023/08/15 04:58:39;;;;;;;10.30;6.70;;;;;;;28.33;100.00;99770.52;109306;1253;73221;-71
2023/08/15 05:01:06;;;;;;;9.90;6.20;;;;;;;28.56;100.00;99767.91;109278;1253;60101;-69
2023/08/15 05:03:34;;;;;;;6.80;5.60;;;;;;;28.83;99.87;99768.13;109247;1252;58860;-70
2023/08/15 05:06:02;;;;;;;6.90;5.20;;;;;;;29.10;98.62;99771.89;109535;1252;74645;-70
2023/08/15 05:08:29;;;;;;;7.70;4.70;;;;;;;29.37;96.90;99768.73;109323;1252;67891;-69
2023/08/15 05:10:57;;;;;;;7.70;4.80;;;;;;;29.65;95.78;99770.08;109458;1253;73147;-68
2023/08/15 05:13:24;;;;;;;7.50;4.30;;;;;;;29.94;95.36;99766.20;109497;1252;60143;-70
2023/08/15 05:15:54;;;;;;;6.80;4.40;;;;;;;30.22;93.52;99768.25;109392;1253;58938;-70
2023/08/15 05:18:21;;;;;;;11.90;4.20;;;;;;;30.47;91.23;99768.02;109513;1252;74627;-69
2023/08/15 05:20:49;;;;;;;7.80;4.30;;;;;;;30.69;89.12;99772.59;109480;1252;66078;-69
2023/08/15 05:23:17;;;;;;;5.30;3.60;;;;;;;30.94;86.18;99772.73;109495;1252;72789;-69
2023/08/15 05:25:45;;;;;;;7.10;4.00;;;;;;;31.18;83.05;99774.38;109514;1252;60059;-69
2023/08/15 05:28:14;;;;;;;4.80;3.40;;;;;;;31.38;81.21;99776.87;109408;1253;59020;-69
2023/08/15 05:30:42;;;;;;;5.60;4.00;;;;;;;31.57;78.50;99775.30;109311;1252;74656;-69
2023/08/15 05:33:09;;;;;;;7.90;3.80;;;;;;;31.78;77.16;99777.69;109489;1252;66610;-69
2023/08/15 05:35:38;;;;;;;7.30;3.30;;;;;;;32.06;73.82;99777.64;109329;1253;72785;-69
2023/08/15 05:38:06;;;;;;;4.90;3.60;;;;;;;32.24;72.88;99777.13;109502;1252;59011;-69
2023/08/15 05:40:33;;;;;;;6.30;3.70;;;;;;;32.43;71.52;99776.53;109357;1252;59063;-69
2023/08/15 05:43:01;;;;;;;4.20;3.30;;;;;;;32.69;66.64;99779.37;109476;1253;73397;-69
2023/08/15 05:45:29;;;;;;;3.50;3.20;;;;;;;32.98;62.22;99780.15;109541;1252;67563;-70
2023/08/15 05:47:57;;;;;;;6.30;3.20;;;;;;;33.26;59.37;99781.34;109521;1252;72858;-70
2023/08/15 05:50:25;;;;;;;5.00;3.30;;;;;;;33.55;57.25;99786.55;109474;1253;59035;-72
2023/08/15 05:52:52;;;;;;;4.20;3.30;;;;;;;33.79;55.40;99786.33;109411;1252;60034;-71
2023/08/15 05:55:20;;;;;;;4.50;3.10;;;;;;;33.97;54.09;99786.55;109530;1252;74835;-71
2023/08/15 05:57:47;;;;;;;5.80;3.10;;;;;;;34.13;53.30;99784.77;109473;1252;67564;-71
2023/08/15 06:00:15;;;;;;;4.80;3.10;;;;;;;34.28;52.17;99791.36;109457;1252;72682;-70
2023/08/15 06:02:42;;;;;;;8.50;3.50;;;;;;;34.42;51.40;99791.02;109396;1252;60073;-73
2023/08/15 06:05:10;;;;;;;4.60;3.00;;;;;;;34.56;50.49;99790.80;109333;1252;59267;-70
2023/08/15 06:07:37;;;;;;;4.00;3.00;;;;;;;34.72;50.56;99791.50;109324;1253;74697;-69
2023/08/15 06:10:08;;;;;;;4.10;3.50;;;;;;;34.90;49.85;99794.66;109385;1252;67543;-71
2023/08/15 06:12:36;;;;;;;5.00;3.50;;;;;;;35.02;49.44;99793.64;109404;1252;71174;-71
2023/08/15 06:15:03;;;;;;;6.60;3.30;;;;;;;35.07;48.41;99791.59;109383;1252;60059;-70
2023/08/15 06:17:31;;;;;;;4.90;3.40;;;;;;;35.16;48.24;99789.89;109399;1252;60018;-69
2023/08/15 06:19:58;;;;;;;7.70;2.90;;;;;;;35.21;47.90;99791.02;109396;1252;74684;-71
2023/08/15 06:22:25;;;;;;;5.20;2.90;;;;;;;35.17;48.53;99789.80;109396;1253;66953;-69
2023/08/15 06:24:53;;;;;;;5.80;2.90;;;;;;;35.10;47.77;99794.92;109414;1252;72808;-71
2023/08/15 06:27:20;;;;;;;6.60;3.00;;;;;;;34.84;47.78;99802.02;109508;1253;59150;-69
2023/08/15 06:29:48;;;;;;;3.70;2.80;;;;;;;34.64;48.69;99796.16;109513;1252;60012;-69
2023/08/15 06:32:25;;;;;;;3.80;3.00;;;;;;;34.57;49.33;99797.11;109433;1252;73477;-70
2023/08/15 06:34:53;;;;;;;7.10;3.40;;;;;;;34.58;49.49;99797.47;109518;1252;67622;-69
2023/08/15 06:37:20;;;;;;;6.90;3.40;;;;;;;34.65;49.82;99797.17;109487;1253;72667;-72
2023/08/15 06:39:48;;;;;;;7.80;3.40;;;;;;;34.89;49.72;99795.24;109494;1252;60072;-75
2023/08/15 06:42:16;;;;;;;4.60;2.60;;;;;;;35.62;47.89;99789.79;109444;1253;58936;-72
2023/08/15 06:44:43;;;;;;;4.20;3.00;;;;;;;36.28;45.71;99788.98;109443;1253;73436;-70
2023/08/15 06:47:11;;;;;;;5.30;3.00;;;;;;;36.34;44.34;99786.54;109483;1252;67689;-71
2023/08/15 06:49:38;;;;;;;5.60;3.00;;;;;;;36.25;43.60;99787.91;109497;1254;72672;-72
2023/08/15 06:52:07;;;;;;;7.00;2.90;;;;;;;36.22;43.59;99786.65;109456;1252;58960;-69
2023/08/15 06:54:36;;;;;;;9.10;3.10;;;;;;;36.25;42.63;99787.64;109452;1252;60027;-68
2023/08/15 06:57:03;;;;;;;5.40;3.40;;;;;;;36.43;41.01;99786.75;109431;1253;74680;-71
2023/08/15 06:59:35;;;;;;;7.40;2.90;;;;;;;37.00;40.34;99783.10;109503;1252;67581;-71
2023/08/15 07:02:03;;;;;;;3.30;2.60;;;;;;;37.63;38.74;99786.23;109366;1252;71815;-72
2023/08/15 07:04:30;;;;;;;5.70;3.00;;;;;;;37.89;37.06;99787.89;109529;1252;58933;-71
2023/08/15 07:06:58;;;;;;;5.40;2.90;;;;;;;37.93;35.78;99785.75;109504;1252;58891;-70
2023/08/15 07:09:28;;;;;;;7.90;3.20;;;;;;;37.93;36.29;99787.64;109511;1253;74721;-70
2023/08/15 07:11:56;;;;;;;4.60;3.10;;;;;;;38.02;36.21;99788.50;109499;1252;66453;-70
2023/08/15 07:14:23;;;;;;;4.50;2.90;;;;;;;38.06;36.26;99789.30;109468;1252;73212;-70
2023/08/15 07:16:51;;;;;;;3.70;2.90;;;;;;;38.17;36.44;99788.05;109468;1253;58879;-68
2023/08/15 07:19:18;;;;;;;3.70;2.80;;;;;;;38.16;36.83;99794.80;109437;1252;58943;-69
2023/08/15 07:21:46;;;;;;;9.90;3.10;;;;;;;38.02;36.05;99794.64;109466;1252;73819;-67
2023/08/15 07:24:14;;;;;;;5.50;2.50;;;;;;;37.76;36.54;99794.70;109474;1253;68443;-67
2023/08/15 07:26:41;;;;;;;4.00;2.30;;;;;;;37.47;36.52;99792.63;109454;1253;72030;-68
2023/08/15 07:29:08;;;;;;;5.40;2.50;;;;;;;37.33;37.21;99791.83;109373;1254;60140;-69
2023/08/15 07:31:36;;;;;;;3.20;2.30;;;;;;;37.25;36.92;99796.52;109395;1252;59990;-68
2023/08/15 07:34:03;;;;;;;3.40;2.50;;;;;;;37.11;35.62;99797.92;109424;1253;74059;-70
2023/08/15 07:36:31;;;;;;;2.60;2.30;;;;;;;37.02;36.09;99795.34;109478;1252;66601;-68
2023/08/15 07:38:58;;;;;;;3.20;2.10;;;;;;;37.14;36.14;99800.46;109474;1252;71168;-68
2023/08/15 07:41:25;;;;;;;3.50;2.30;;;;;;;37.26;35.80;99801.57;109431;1253;60070;-67
2023/08/15 07:43:53;;;;;;;2.50;2.10;;;;;;;37.18;35.60;99804.80;109474;1253;60232;-68
2023/08/15 07:46:20;;;;;;;4.40;2.60;;;;;;;36.95;35.84;99805.25;109502;1252;74623;-70
2023/08/15 07:48:48;;;;;;;3.30;2.40;;;;;;;36.85;36.26;99806.61;109496;1252;66412;-69
2023/08/15 07:51:15;;;;;;;4.20;2.40;;;;;;;36.81;36.13;99807.89;109467;1252;72636;-67
2023/08/15 07:53:43;;;;;;;3.50;2.30;;;;;;;36.72;36.23;99806.38;109466;1253;60184;-69
2023/08/15 07:56:10;;;;;;;5.20;2.30;;;;;;;36.67;37.10;99807.54;109494;1252;60299;-71
2023/08/15 07:58:37;;;;;;;10.00;2.30;;;;;;;36.85;37.08;99805.32;109535;1257;74682;-71
2023/08/15 08:01:05;;;;;;;10.70;2.90;;;;;;;37.03;36.75;99801.56;109544;1253;66536;-68
2023/08/15 08:03:32;;;;;;;4.30;2.20;;;;;;;37.17;36.80;99801.39;109398;1252;71290;-69
2023/08/15 08:06:00;;;;;;;3.50;2.40;;;;;;;37.23;36.66;99803.34;109408;1252;59012;-69
2023/08/15 08:08:30;;;;;;;4.20;2.00;;;;;;;37.22;36.72;99801.25;109118;1255;60131;-72
2023/08/15 08:10:57;;;;;;;4.30;2.50;;;;;;;37.29;37.31;99802.92;109446;1252;74694;-73
2023/08/15 08:13:24;;;;;;;4.30;2.70;;;;;;;37.43;36.17;99806.27;109430;1252;67662;-70
2023/08/15 08:15:52;;;;;;;3.80;2.20;;;;;;;37.45;34.79;99799.67;109430;1252;72654;-72
2023/08/15 08:18:19;;;;;;;4.10;2.40;;;;;;;37.37;34.60;99802.38;109534;1252;60131;-68
2023/08/15 08:20:46;;;;;;;6.60;2.70;;;;;;;37.18;35.09;99805.45;109543;1252;59018;-69
2023/08/15 08:23:14;;;;;;;4.70;2.20;;;;;;;37.18;35.83;99807.81;109238;1252;73356;-68
2023/08/15 08:25:41;;;;;;;6.40;2.40;;;;;;;37.21;35.33;99801.42;109548;1253;67182;-68
2023/08/15 08:28:09;;;;;;;4.60;2.10;;;;;;;37.31;35.55;99803.95;109532;1252;72706;-69
2023/08/15 08:30:37;;;;;;;6.10;2.10;;;;;;;37.44;33.69;99797.92;109556;1252;59405;-68
2023/08/15 08:33:09;;;;;;;3.40;2.40;;;;;;;37.37;33.90;99799.98;109564;1252;58926;-69
2023/08/15 08:35:36;;;;;;;2.60;2.40;;;;;;;37.35;34.50;99797.45;109478;1253;74732;-68
2023/08/15 08:38:03;;;;;;;2.10;1.90;;;;;;;37.38;33.50;99797.27;109600;1252;67894;-68
2023/08/15 08:40:31;;;;;;;3.00;2.00;;;;;;;37.20;32.57;99795.55;109561;1252;72065;-71
2023/08/15 08:42:58;;;;;;;3.60;2.10;;;;;;;36.97;32.78;99792.27;109362;1252;58941;-69
2023/08/15 08:45:26;;;;;;;4.80;2.10;;;;;;;36.71;32.16;99791.38;109562;1252;60018;-68
2023/08/15 08:47:53;;;;;;;2.60;1.70;;;;;;;36.46;32.55;99788.92;109275;1251;73368;-70
2023/08/15 08:50:21;;;;;;;5.50;2.80;;;;;;;36.39;32.66;99789.34;109537;1252;67589;-66
2023/08/15 08:52:49;;;;;;;3.90;2.10;;;;;;;36.41;34.08;99791.31;109502;1252;71841;-67
2023/08/15 08:55:17;;;;;;;2.50;2.30;;;;;;;36.54;34.14;99789.36;109538;1253;58989;-70
2023/08/15 08:57:48;;;;;;;3.50;2.20;;;;;;;36.54;34.28;99787.60;109468;1252;59126;-70
2023/08/15 09:00:16;;;;;;;4.10;2.20;;;;;;;36.56;33.81;99789.13;109420;1253;74676;-68
2023/08/15 09:02:44;;;;;;;2.20;2.00;;;;;;;36.72;33.48;99782.58;109523;1252;66804;-68
2023/08/15 09:05:12;;;;;;;2.60;2.20;;;;;;;36.81;33.10;99780.85;109547;1252;72466;-68
2023/08/15 09:07:39;;;;;;;6.00;2.70;;;;;;;36.83;34.04;99778.79;109558;1252;58881;-68
2023/08/15 09:10:07;;;;;;;5.10;2.20;;;;;;;36.76;33.53;99777.33;109352;1252;58870;-67
2023/08/15 09:12:36;;;;;;;4.20;2.70;;;;;;;36.69;33.62;99775.39;109536;1252;74646;-68
2023/08/15 09:15:04;;;;;;;2.40;1.80;;;;;;;36.75;33.40;99774.20;109606;1252;67772;-71
2023/08/15 09:17:32;;;;;;;3.80;2.10;;;;;;;36.89;32.42;99773.38;109533;1253;72693;-70
2023/08/15 09:20:18;;;;;;;3.50;2.20;;;;;;;36.91;32.86;99776.73;109522;1253;60150;-69
2023/08/15 09:22:46;;;;;;;3.80;2.00;;;;;;;36.88;32.94;99780.09;109590;1252;58906;-68
2023/08/15 09:25:17;;;;;;;3.00;2.20;;;;;;;36.88;34.11;99780.08;109444;1252;73201;-72
2023/08/15 09:27:45;;;;;;;3.20;2.30;;;;;;;37.01;34.15;99777.54;109521;1253;67550;-71
2023/08/15 09:30:14;;;;;;;5.90;2.60;;;;;;;37.10;34.15;99777.03;109466;1252;71391;-69
2023/08/15 09:32:42;;;;;;;5.20;2.90;;;;;;;37.26;33.94;99776.34;109537;1253;60057;-68
2023/08/15 09:35:10;;;;;;;4.20;3.00;;;;;;;37.40;33.87;99770.41;109425;1253;58918;-71
2023/08/15 09:37:45;;;;;;;2.70;2.40;;;;;;;37.55;34.14;99770.72;109500;1252;73419;-66
2023/08/15 09:40:23;;;;;;;;;;;;;;;37.79;33.43;99767.94;109547;1252;67810;-71
2023/08/15 09:42:54;;;;;;;5.20;2.70;;;;;;;37.96;32.79;99771.55;109479;1253;71814;-69
2023/08/15 09:45:21;;;;;;;3.20;2.60;;;;;;;37.91;32.57;99771.53;109532;1252;58866;-72
2023/08/15 09:47:49;;;;;;;3.40;2.10;;;;;;;37.97;32.37;99771.27;109537;1252;60345;-71
2023/08/15 09:50:16;;;;;;;2.40;2.20;;;;;;;38.04;31.12;99767.56;109359;1253;74781;-68
2023/08/15 09:52:44;;;;;;;3.10;2.30;;;;;;;38.15;31.59;99767.36;109452;1252;67914;-72
2023/08/15 09:55:17;;;;;;;4.20;2.50;;;;;;;38.33;31.03;99764.01;109469;1253;72714;-69
2023/08/15 09:57:45;;;;;;;3.60;2.40;;;;;;;38.48;31.04;99764.83;109468;1252;58967;-69
2023/08/15 10:00:13;;;;;;;2.90;2.20;;;;;;;38.67;31.08;99757.65;109609;1253;58915;-69
2023/08/15 10:02:46;;;;;;;2.90;2.60;;;;;;;38.81;29.67;99758.13;109416;1253;74747;-69
2023/08/15 10:05:13;;;;;;;5.50;2.60;;;;;;;38.79;29.77;99760.52;109321;1252;68145;-72
2023/08/15 10:07:43;;;;;;;5.50;2.80;;;;;;;38.89;30.38;99762.02;109348;1253;72684;-69
2023/08/15 10:10:11;;;;;;;2.80;2.40;;;;;;;39.46;29.73;99762.37;109400;1253;60496;-69
2023/08/15 10:12:39;;;;;;;3.90;2.40;;;;;;;40.49;28.44;99763.19;109347;1253;59986;-74
2023/08/15 10:15:09;;;;;;;2.30;2.10;;;;;;;41.49;27.17;99754.34;109475;1253;73449;-71
2023/08/15 10:17:37;;;;;;;3.00;2.40;;;;;;;42.32;26.57;99753.48;109479;1253;67619;-70
2023/08/15 10:20:12;;;;;;;4.70;2.30;;;;;;;42.48;25.52;99758.40;109258;1254;72695;-73
2023/08/15 10:22:39;;;;;;;3.00;1.90;;;;;;;42.04;25.72;99753.02;109380;1253;60445;-72
2023/08/15 10:25:22;;;;;;;3.60;2.30;;;;;;;41.53;26.19;99750.54;109318;1252;59188;-72
2023/08/15 10:27:52;;;;;;;2.80;2.20;;;;;;;40.93;26.79;99753.23;109342;1253;73885;-74
2023/08/15 10:30:36;;;;;;;3.10;2.30;;;;;;;40.67;26.43;99753.52;109376;1253;67927;-68
2023/08/15 10:33:16;;;;;;;2.70;2.10;;;;;;;40.25;25.97;99751.85;109411;1253;73087;-72
2023/08/15 10:35:56;;;;;;;4.80;1.80;;;;;;;39.99;26.18;99753.88;109416;1252;59083;-71
2023/08/15 10:38:40;;;;;;;2.50;1.70;;;;;;;40.18;25.60;99750.82;109450;1252;60653;-71
2023/08/15 10:41:14;;;;;;;5.10;2.10;;;;;;;40.30;25.49;99748.08;109470;1257;73656;-73
2023/08/15 10:43:50;;;;;;;5.10;2.00;;;;;;;39.94;24.88;99751.38;109581;1252;69399;-69
2023/08/15 10:46:18;;;;;;;4.50;2.10;;;;;;;39.25;25.92;99751.66;109340;1253;71453;-71
2023/08/15 10:48:51;;;;;;;2.00;1.60;;;;;;;39.07;25.74;99749.77;109510;1253;60100;-70
2023/08/15 10:51:26;;;;;;;3.20;1.60;;;;;;;39.04;25.85;99753.10;109547;1253;58883;-75
2023/08/15 10:53:56;;;;;;;6.00;2.00;;;;;;;38.83;26.55;99750.88;109533;1253;74696;-70
2023/08/15 10:56:25;;;;;;;2.50;2.00;;;;;;;38.85;26.53;99750.01;109539;1253;66273;-74
2023/08/15 10:58:52;;;;;;;3.10;1.90;;;;;;;38.87;26.50;99747.10;109548;1253;72672;-68
2023/08/15 11:01:21;;;;;;;6.40;2.10;;;;;;;38.51;26.76;99746.50;109496;1253;60133;-70
2023/08/15 11:03:50;;;;;;;3.30;2.20;;;;;;;38.25;27.23;99746.76;109536;1253;58880;-68
2023/08/15 11:06:18;;;;;;;4.60;2.00;;;;;;;38.21;27.15;99744.64;109386;1252;74662;-68
2023/08/15 11:08:49;;;;;;;3.10;2.00;;;;;;;38.38;27.13;99742.27;109523;1253;66504;-71
2023/08/15 11:11:17;;;;;;;3.10;2.00;;;;;;;38.47;27.69;99737.73;109530;1252;73156;-71
2023/08/15 11:13:46;;;;;;;2.90;2.20;;;;;;;38.40;27.96;99736.46;109416;1253;58932;-71
2023/08/15 11:16:15;;;;;;;3.30;2.30;;;;;;;38.16;27.92;99736.64;109517;1253;59978;-72
2023/08/15 11:18:43;;;;;;;3.10;2.40;;;;;;;38.18;28.29;99735.98;109459;1252;74648;-67
2023/08/15 11:21:11;;;;;;;2.80;2.10;;;;;;;37.81;28.25;99738.82;109539;1252;67573;-68
2023/08/15 11:23:39;;;;;;;4.20;2.30;;;;;;;37.58;28.53;99738.83;109570;1256;71620;-69
2023/08/15 11:26:11;;;;;;;2.70;2.30;;;;;;;37.74;28.60;99734.77;109532;1252;59996;-72
2023/08/15 11:28:38;;;;;;;5.80;2.10;;;;;;;37.71;28.06;99733.47;109461;1253;58887;-71